Řízení letového provozu České republiky
Letiste: LKLN Aktualizace: 12.11.2018 20:36:06  UTC
 SPECI LKLN 12.11. 20:32 ...
SPECI LKLN 122032Z AUTO VRB02KT 4700 BR OVC004 07/07 Q1024=